sensor_id;sensor_type;location;lat;lon;timestamp;temperature;humidity
21502;DHT22;27639;48.674;9.242;2022-09-03T00:00:46;20.90;49.50
21502;DHT22;27639;48.674;9.242;2022-09-03T00:03:44;20.90;49.60
21502;DHT22;27639;48.674;9.242;2022-09-03T00:06:13;21.00;49.70
21502;DHT22;27639;48.674;9.242;2022-09-03T00:09:02;21.00;49.90
21502;DHT22;27639;48.674;9.242;2022-09-03T00:12:20;21.00;49.70
21502;DHT22;27639;48.674;9.242;2022-09-03T00:14:35;21.00;49.70
21502;DHT22;27639;48.674;9.242;2022-09-03T00:17:10;21.00;49.80
21502;DHT22;27639;48.674;9.242;2022-09-03T00:19:45;21.00;49.70
21502;DHT22;27639;48.674;9.242;2022-09-03T00:22:19;20.90;49.60
21502;DHT22;27639;48.674;9.242;2022-09-03T00:24:47;20.90;49.70
21502;DHT22;27639;48.674;9.242;2022-09-03T00:27:17;20.90;49.80
21502;DHT22;27639;48.674;9.242;2022-09-03T00:29:58;20.90;49.80
21502;DHT22;27639;48.674;9.242;2022-09-03T00:32:47;21.00;49.80
21502;DHT22;27639;48.674;9.242;2022-09-03T00:35:26;20.90;49.40
21502;DHT22;27639;48.674;9.242;2022-09-03T00:37:52;20.90;49.50
21502;DHT22;27639;48.674;9.242;2022-09-03T00:40:53;21.00;49.70
21502;DHT22;27639;48.674;9.242;2022-09-03T00:46:48;20.90;49.60
21502;DHT22;27639;48.674;9.242;2022-09-03T00:55:21;21.00;49.80
21502;DHT22;27639;48.674;9.242;2022-09-03T00:58:33;21.00;49.90
21502;DHT22;27639;48.674;9.242;2022-09-03T01:01:09;21.00;49.80
21502;DHT22;27639;48.674;9.242;2022-09-03T01:03:56;20.90;50.00
21502;DHT22;27639;48.674;9.242;2022-09-03T01:06:45;20.90;50.10
21502;DHT22;27639;48.674;9.242;2022-09-03T01:12:08;20.90;50.10
21502;DHT22;27639;48.674;9.242;2022-09-03T01:17:12;21.00;50.20
21502;DHT22;27639;48.674;9.242;2022-09-03T01:20:08;21.00;50.80
21502;DHT22;27639;48.674;9.242;2022-09-03T01:37:01;21.00;50.70
21502;DHT22;27639;48.674;9.242;2022-09-03T01:39:54;20.90;50.60
21502;DHT22;27639;48.674;9.242;2022-09-03T01:50:43;21.00;50.90
21502;DHT22;27639;48.674;9.242;2022-09-03T01:56:42;20.90;50.80
21502;DHT22;27639;48.674;9.242;2022-09-03T01:59:42;20.90;51.00
21502;DHT22;27639;48.674;9.242;2022-09-03T02:02:17;20.90;51.00
21502;DHT22;27639;48.674;9.242;2022-09-03T02:05:05;20.80;51.80
21502;DHT22;27639;48.674;9.242;2022-09-03T02:07:40;20.90;51.30
21502;DHT22;27639;48.674;9.242;2022-09-03T02:10:20;20.90;52.30
21502;DHT22;27639;48.674;9.242;2022-09-03T02:12:55;20.90;51.70
21502;DHT22;27639;48.674;9.242;2022-09-03T02:15:22;20.90;51.60
21502;DHT22;27639;48.674;9.242;2022-09-03T02:17:54;20.90;51.70
21502;DHT22;27639;48.674;9.242;2022-09-03T02:20:25;20.90;51.60
21502;DHT22;27639;48.674;9.242;2022-09-03T02:22:52;20.90;51.70
21502;DHT22;27639;48.674;9.242;2022-09-03T02:25:21;21.00;51.80
21502;DHT22;27639;48.674;9.242;2022-09-03T02:27:48;21.00;51.80
21502;DHT22;27639;48.674;9.242;2022-09-03T02:30:15;20.90;51.60
21502;DHT22;27639;48.674;9.242;2022-09-03T02:32:41;21.00;51.50
21502;DHT22;27639;48.674;9.242;2022-09-03T02:35:07;21.00;51.40
21502;DHT22;27639;48.674;9.242;2022-09-03T02:37:33;21.00;51.00
21502;DHT22;27639;48.674;9.242;2022-09-03T02:39:59;21.00;51.00
21502;DHT22;27639;48.674;9.242;2022-09-03T02:42:25;21.00;51.20
21502;DHT22;27639;48.674;9.242;2022-09-03T02:47:35;21.00;51.30
21502;DHT22;27639;48.674;9.242;2022-09-03T02:50:01;21.00;51.50
21502;DHT22;27639;48.674;9.242;2022-09-03T02:52:27;21.00;51.60
21502;DHT22;27639;48.674;9.242;2022-09-03T02:54:52;20.90;51.70
21502;DHT22;27639;48.674;9.242;2022-09-03T02:57:18;20.90;51.80
21502;DHT22;27639;48.674;9.242;2022-09-03T02:59:43;20.80;51.80
21502;DHT22;27639;48.674;9.242;2022-09-03T03:02:11;20.80;51.90
21502;DHT22;27639;48.674;9.242;2022-09-03T03:04:37;20.80;51.90
21502;DHT22;27639;48.674;9.242;2022-09-03T03:07:04;20.70;51.90
21502;DHT22;27639;48.674;9.242;2022-09-03T03:09:29;20.70;51.70
21502;DHT22;27639;48.674;9.242;2022-09-03T03:11:55;20.70;51.80
21502;DHT22;27639;48.674;9.242;2022-09-03T03:14:21;20.70;51.60
21502;DHT22;27639;48.674;9.242;2022-09-03T03:16:47;20.70;51.60
21502;DHT22;27639;48.674;9.242;2022-09-03T03:19:13;20.70;51.60
21502;DHT22;27639;48.674;9.242;2022-09-03T03:21:38;20.70;51.70
21502;DHT22;27639;48.674;9.242;2022-09-03T03:24:05;20.70;51.80
21502;DHT22;27639;48.674;9.242;2022-09-03T03:26:31;20.70;51.90
21502;DHT22;27639;48.674;9.242;2022-09-03T03:28:58;20.70;52.00
21502;DHT22;27639;48.674;9.242;2022-09-03T03:31:25;20.60;52.00
21502;DHT22;27639;48.674;9.242;2022-09-03T03:33:56;20.60;51.90
21502;DHT22;27639;48.674;9.242;2022-09-03T03:36:24;20.50;51.60
21502;DHT22;27639;48.674;9.242;2022-09-03T03:38:53;20.50;51.80
21502;DHT22;27639;48.674;9.242;2022-09-03T03:41:21;20.50;51.80
21502;DHT22;27639;48.674;9.242;2022-09-03T03:43:47;20.40;51.80
21502;DHT22;27639;48.674;9.242;2022-09-03T03:46:16;20.40;51.80
21502;DHT22;27639;48.674;9.242;2022-09-03T03:48:42;20.50;52.10
21502;DHT22;27639;48.674;9.242;2022-09-03T03:51:09;20.40;52.10
21502;DHT22;27639;48.674;9.242;2022-09-03T03:53:36;20.40;52.30
21502;DHT22;27639;48.674;9.242;2022-09-03T03:56:08;20.30;52.30
21502;DHT22;27639;48.674;9.242;2022-09-03T03:58:34;20.20;52.40
21502;DHT22;27639;48.674;9.242;2022-09-03T04:01:16;20.20;52.60
21502;DHT22;27639;48.674;9.242;2022-09-03T04:03:42;20.20;52.60
21502;DHT22;27639;48.674;9.242;2022-09-03T04:06:09;20.20;52.70
21502;DHT22;27639;48.674;9.242;2022-09-03T04:08:40;20.20;52.70
21502;DHT22;27639;48.674;9.242;2022-09-03T04:11:08;20.30;52.70
21502;DHT22;27639;48.674;9.242;2022-09-03T04:13:36;20.40;53.60
21502;DHT22;27639;48.674;9.242;2022-09-03T04:16:04;20.30;53.00
21502;DHT22;27639;48.674;9.242;2022-09-03T04:18:31;20.30;52.90
21502;DHT22;27639;48.674;9.242;2022-09-03T04:21:24;20.30;52.90
21502;DHT22;27639;48.674;9.242;2022-09-03T04:23:50;20.30;52.70
21502;DHT22;27639;48.674;9.242;2022-09-03T04:26:18;20.30;53.00
21502;DHT22;27639;48.674;9.242;2022-09-03T04:28:44;20.30;52.90
21502;DHT22;27639;48.674;9.242;2022-09-03T04:31:12;20.40;52.80
21502;DHT22;27639;48.674;9.242;2022-09-03T04:33:38;20.30;52.90
21502;DHT22;27639;48.674;9.242;2022-09-03T04:36:18;20.30;53.00
21502;DHT22;27639;48.674;9.242;2022-09-03T04:38:46;20.30;53.10
21502;DHT22;27639;48.674;9.242;2022-09-03T04:41:15;20.20;53.30
21502;DHT22;27639;48.674;9.242;2022-09-03T04:43:41;20.20;53.40
21502;DHT22;27639;48.674;9.242;2022-09-03T04:46:09;20.20;53.40
21502;DHT22;27639;48.674;9.242;2022-09-03T04:48:36;20.10;53.30
21502;DHT22;27639;48.674;9.242;2022-09-03T04:51:12;20.10;53.20
21502;DHT22;27639;48.674;9.242;2022-09-03T04:53:40;20.10;53.20
21502;DHT22;27639;48.674;9.242;2022-09-03T04:56:17;20.20;53.40
21502;DHT22;27639;48.674;9.242;2022-09-03T04:58:43;20.20;53.40
21502;DHT22;27639;48.674;9.242;2022-09-03T05:01:11;20.10;53.70
21502;DHT22;27639;48.674;9.242;2022-09-03T05:03:37;20.10;53.80
21502;DHT22;27639;48.674;9.242;2022-09-03T05:06:03;20.10;54.50
21502;DHT22;27639;48.674;9.242;2022-09-03T05:08:31;20.10;54.00
21502;DHT22;27639;48.674;9.242;2022-09-03T05:11:00;20.10;54.10
21502;DHT22;27639;48.674;9.242;2022-09-03T05:13:26;20.10;54.20
21502;DHT22;27639;48.674;9.242;2022-09-03T05:15:57;20.10;54.30
21502;DHT22;27639;48.674;9.242;2022-09-03T05:18:23;20.10;54.30
21502;DHT22;27639;48.674;9.242;2022-09-03T05:20:57;20.20;54.00
21502;DHT22;27639;48.674;9.242;2022-09-03T05:23:22;20.20;53.60
21502;DHT22;27639;48.674;9.242;2022-09-03T05:26:03;20.30;53.60
21502;DHT22;27639;48.674;9.242;2022-09-03T05:28:34;20.20;53.30
21502;DHT22;27639;48.674;9.242;2022-09-03T05:31:05;20.20;53.40
21502;DHT22;27639;48.674;9.242;2022-09-03T05:33:51;20.20;53.40
21502;DHT22;27639;48.674;9.242;2022-09-03T05:36:19;20.20;53.30
21502;DHT22;27639;48.674;9.242;2022-09-03T05:38:46;20.20;53.50
21502;DHT22;27639;48.674;9.242;2022-09-03T05:41:13;20.20;53.50
21502;DHT22;27639;48.674;9.242;2022-09-03T05:43:39;20.20;54.20
21502;DHT22;27639;48.674;9.242;2022-09-03T05:46:11;20.20;53.70
21502;DHT22;27639;48.674;9.242;2022-09-03T05:48:38;20.20;53.90
21502;DHT22;27639;48.674;9.242;2022-09-03T05:51:12;20.20;53.90
21502;DHT22;27639;48.674;9.242;2022-09-03T05:53:41;20.20;53.80
21502;DHT22;27639;48.674;9.242;2022-09-03T05:56:10;20.30;53.90
21502;DHT22;27639;48.674;9.242;2022-09-03T05:58:38;20.30;53.30
21502;DHT22;27639;48.674;9.242;2022-09-03T06:01:19;20.30;53.30
21502;DHT22;27639;48.674;9.242;2022-09-03T06:03:46;20.30;53.30
21502;DHT22;27639;48.674;9.242;2022-09-03T06:06:13;20.30;53.60
21502;DHT22;27639;48.674;9.242;2022-09-03T06:08:39;20.40;53.80
21502;DHT22;27639;48.674;9.242;2022-09-03T06:11:05;20.40;54.00
21502;DHT22;27639;48.674;9.242;2022-09-03T06:13:32;20.30;54.20
21502;DHT22;27639;48.674;9.242;2022-09-03T06:16:05;20.30;54.40
21502;DHT22;27639;48.674;9.242;2022-09-03T06:18:31;20.30;54.30
21502;DHT22;27639;48.674;9.242;2022-09-03T06:20:59;20.30;54.50
21502;DHT22;27639;48.674;9.242;2022-09-03T06:23:25;20.30;54.70
21502;DHT22;27639;48.674;9.242;2022-09-03T06:26:11;20.30;54.60
21502;DHT22;27639;48.674;9.242;2022-09-03T06:28:39;20.40;55.40
21502;DHT22;27639;48.674;9.242;2022-09-03T06:31:07;20.40;55.00
21502;DHT22;27639;48.674;9.242;2022-09-03T06:33:35;20.40;55.10
21502;DHT22;27639;48.674;9.242;2022-09-03T06:36:02;20.40;55.30
21502;DHT22;27639;48.674;9.242;2022-09-03T06:38:30;20.40;55.50
21502;DHT22;27639;48.674;9.242;2022-09-03T06:41:01;20.40;55.70
21502;DHT22;27639;48.674;9.242;2022-09-03T06:43:32;20.50;55.90
21502;DHT22;27639;48.674;9.242;2022-09-03T06:46:00;20.50;56.00
21502;DHT22;27639;48.674;9.242;2022-09-03T06:48:28;20.60;56.10
21502;DHT22;27639;48.674;9.242;2022-09-03T06:51:02;20.60;56.00
21502;DHT22;27639;48.674;9.242;2022-09-03T06:53:30;20.70;56.00
21502;DHT22;27639;48.674;9.242;2022-09-03T06:55:58;20.70;56.00
21502;DHT22;27639;48.674;9.242;2022-09-03T06:58:28;20.80;56.00
21502;DHT22;27639;48.674;9.242;2022-09-03T07:01:03;20.80;55.90
21502;DHT22;27639;48.674;9.242;2022-09-03T07:03:31;20.80;55.80
21502;DHT22;27639;48.674;9.242;2022-09-03T07:06:01;20.90;55.80
21502;DHT22;27639;48.674;9.242;2022-09-03T07:08:27;20.90;55.40
21502;DHT22;27639;48.674;9.242;2022-09-03T07:10:52;20.90;55.40
21502;DHT22;27639;48.674;9.242;2022-09-03T07:13:18;20.90;55.40
21502;DHT22;27639;48.674;9.242;2022-09-03T07:15:45;20.90;55.40
21502;DHT22;27639;48.674;9.242;2022-09-03T07:18:11;21.00;55.30
21502;DHT22;27639;48.674;9.242;2022-09-03T07:20:36;21.00;55.20
21502;DHT22;27639;48.674;9.242;2022-09-03T07:23:02;21.00;55.30
21502;DHT22;27639;48.674;9.242;2022-09-03T07:25:28;21.00;55.10
21502;DHT22;27639;48.674;9.242;2022-09-03T07:27:55;21.00;54.90
21502;DHT22;27639;48.674;9.242;2022-09-03T07:30:22;21.10;55.00
21502;DHT22;27639;48.674;9.242;2022-09-03T07:32:50;21.10;55.20
21502;DHT22;27639;48.674;9.242;2022-09-03T07:35:16;21.10;55.00
21502;DHT22;27639;48.674;9.242;2022-09-03T07:37:42;21.10;55.00
21502;DHT22;27639;48.674;9.242;2022-09-03T07:40:09;21.10;55.10
21502;DHT22;27639;48.674;9.242;2022-09-03T07:42:35;21.10;54.70
21502;DHT22;27639;48.674;9.242;2022-09-03T07:45:04;21.00;54.70
21502;DHT22;27639;48.674;9.242;2022-09-03T07:47:34;21.10;54.80
21502;DHT22;27639;48.674;9.242;2022-09-03T07:50:00;21.00;54.80
21502;DHT22;27639;48.674;9.242;2022-09-03T07:52:26;21.10;54.70
21502;DHT22;27639;48.674;9.242;2022-09-03T07:54:52;21.10;54.70
21502;DHT22;27639;48.674;9.242;2022-09-03T07:57:18;21.10;54.80
21502;DHT22;27639;48.674;9.242;2022-09-03T07:59:43;21.10;55.10
21502;DHT22;27639;48.674;9.242;2022-09-03T08:02:09;21.10;55.10
21502;DHT22;27639;48.674;9.242;2022-09-03T08:04:34;21.20;54.80
21502;DHT22;27639;48.674;9.242;2022-09-03T08:07:00;21.20;54.90
21502;DHT22;27639;48.674;9.242;2022-09-03T08:09:26;21.20;55.00
21502;DHT22;27639;48.674;9.242;2022-09-03T08:11:51;21.20;55.10
21502;DHT22;27639;48.674;9.242;2022-09-03T08:14:17;21.30;55.90
21502;DHT22;27639;48.674;9.242;2022-09-03T08:16:45;21.40;55.40
21502;DHT22;27639;48.674;9.242;2022-09-03T08:19:12;21.50;55.30
21502;DHT22;27639;48.674;9.242;2022-09-03T08:21:39;21.50;55.30
21502;DHT22;27639;48.674;9.242;2022-09-03T08:24:08;21.50;55.40
21502;DHT22;27639;48.674;9.242;2022-09-03T08:26:37;21.60;55.60
21502;DHT22;27639;48.674;9.242;2022-09-03T08:29:04;21.70;55.60
21502;DHT22;27639;48.674;9.242;2022-09-03T08:31:30;21.80;55.60
21502;DHT22;27639;48.674;9.242;2022-09-03T08:33:58;21.90;55.70
21502;DHT22;27639;48.674;9.242;2022-09-03T08:36:26;22.10;55.60
21502;DHT22;27639;48.674;9.242;2022-09-03T08:38:53;22.20;55.40
21502;DHT22;27639;48.674;9.242;2022-09-03T08:47:06;22.60;54.60
21502;DHT22;27639;48.674;9.242;2022-09-03T08:49:38;22.60;54.50
21502;DHT22;27639;48.674;9.242;2022-09-03T08:54:48;22.90;53.90
21502;DHT22;27639;48.674;9.242;2022-09-03T08:57:18;23.00;54.00
21502;DHT22;27639;48.674;9.242;2022-09-03T08:59:46;23.10;54.00
21502;DHT22;27639;48.674;9.242;2022-09-03T09:02:35;23.20;53.80
21502;DHT22;27639;48.674;9.242;2022-09-03T09:05:11;23.30;53.50
21502;DHT22;27639;48.674;9.242;2022-09-03T09:07:58;23.30;53.50
21502;DHT22;27639;48.674;9.242;2022-09-03T09:10:43;23.40;54.10
21502;DHT22;27639;48.674;9.242;2022-09-03T09:13:23;23.50;53.40
21502;DHT22;27639;48.674;9.242;2022-09-03T09:16:12;23.50;52.70
21502;DHT22;27639;48.674;9.242;2022-09-03T09:21:16;23.50;52.50
21502;DHT22;27639;48.674;9.242;2022-09-03T09:23:43;23.60;52.50
21502;DHT22;27639;48.674;9.242;2022-09-03T09:26:16;23.50;52.50
21502;DHT22;27639;48.674;9.242;2022-09-03T09:28:44;23.60;52.70
21502;DHT22;27639;48.674;9.242;2022-09-03T09:31:17;23.60;52.70
21502;DHT22;27639;48.674;9.242;2022-09-03T09:33:47;23.70;52.70
21502;DHT22;27639;48.674;9.242;2022-09-03T09:36:15;23.80;52.80
21502;DHT22;27639;48.674;9.242;2022-09-03T09:38:42;23.80;52.80
21502;DHT22;27639;48.674;9.242;2022-09-03T09:41:16;23.80;52.80
21502;DHT22;27639;48.674;9.242;2022-09-03T09:43:43;23.90;52.70
21502;DHT22;27639;48.674;9.242;2022-09-03T09:46:24;23.80;52.60
21502;DHT22;27639;48.674;9.242;2022-09-03T09:48:52;24.00;52.70
21502;DHT22;27639;48.674;9.242;2022-09-03T09:51:23;24.00;52.20
21502;DHT22;27639;48.674;9.242;2022-09-03T09:54:12;24.20;52.40
21502;DHT22;27639;48.674;9.242;2022-09-03T09:56:38;24.20;52.40
21502;DHT22;27639;48.674;9.242;2022-09-03T09:59:12;24.20;52.90
21502;DHT22;27639;48.674;9.242;2022-09-03T10:01:39;24.40;52.70
21502;DHT22;27639;48.674;9.242;2022-09-03T10:04:11;24.50;52.20
21502;DHT22;27639;48.674;9.242;2022-09-03T10:06:38;24.60;52.20
21502;DHT22;27639;48.674;9.242;2022-09-03T10:09:21;24.70;52.20
21502;DHT22;27639;48.674;9.242;2022-09-03T10:12:20;24.80;52.00
21502;DHT22;27639;48.674;9.242;2022-09-03T10:14:50;24.80;51.60
21502;DHT22;27639;48.674;9.242;2022-09-03T10:17:27;24.80;51.50
21502;DHT22;27639;48.674;9.242;2022-09-03T10:22:43;25.00;51.50
21502;DHT22;27639;48.674;9.242;2022-09-03T10:25:13;25.10;51.50
21502;DHT22;27639;48.674;9.242;2022-09-03T10:27:39;25.10;51.50
21502;DHT22;27639;48.674;9.242;2022-09-03T10:30:06;25.20;51.40
21502;DHT22;27639;48.674;9.242;2022-09-03T10:35:29;25.30;51.40
21502;DHT22;27639;48.674;9.242;2022-09-03T10:38:16;25.30;51.00
21502;DHT22;27639;48.674;9.242;2022-09-03T10:51:44;25.60;50.70
21502;DHT22;27639;48.674;9.242;2022-09-03T10:54:51;25.50;50.20
21502;DHT22;27639;48.674;9.242;2022-09-03T10:57:28;25.40;50.30
21502;DHT22;27639;48.674;9.242;2022-09-03T11:00:06;25.40;50.60
21502;DHT22;27639;48.674;9.242;2022-09-03T11:08:27;25.30;50.80
21502;DHT22;27639;48.674;9.242;2022-09-03T11:10:59;25.40;50.70
21502;DHT22;27639;48.674;9.242;2022-09-03T11:13:43;25.50;50.40
21502;DHT22;27639;48.674;9.242;2022-09-03T11:16:12;25.50;50.30
21502;DHT22;27639;48.674;9.242;2022-09-03T11:18:46;25.50;50.30
21502;DHT22;27639;48.674;9.242;2022-09-03T11:21:15;25.50;50.30
21502;DHT22;27639;48.674;9.242;2022-09-03T11:23:44;25.50;50.90
21502;DHT22;27639;48.674;9.242;2022-09-03T11:26:14;25.50;50.30
21502;DHT22;27639;48.674;9.242;2022-09-03T11:34:26;25.50;50.30
21502;DHT22;27639;48.674;9.242;2022-09-03T11:37:28;25.50;50.30
21502;DHT22;27639;48.674;9.242;2022-09-03T11:40:13;25.50;50.30
21502;DHT22;27639;48.674;9.242;2022-09-03T11:42:44;25.50;50.30
21502;DHT22;27639;48.674;9.242;2022-09-03T11:47:45;25.50;50.10
21502;DHT22;27639;48.674;9.242;2022-09-03T11:50:25;25.40;50.20
21502;DHT22;27639;48.674;9.242;2022-09-03T11:52:53;25.30;50.30
21502;DHT22;27639;48.674;9.242;2022-09-03T11:55:32;25.30;50.60
21502;DHT22;27639;48.674;9.242;2022-09-03T11:58:31;25.30;50.40
21502;DHT22;27639;48.674;9.242;2022-09-03T12:00:57;25.30;50.60
21502;DHT22;27639;48.674;9.242;2022-09-03T12:03:29;25.20;50.80
21502;DHT22;27639;48.674;9.242;2022-09-03T12:09:04;25.20;50.90
21502;DHT22;27639;48.674;9.242;2022-09-03T12:14:39;24.80;52.90
21502;DHT22;27639;48.674;9.242;2022-09-03T12:17:11;24.40;52.60
21502;DHT22;27639;48.674;9.242;2022-09-03T12:19:49;24.00;53.30
21502;DHT22;27639;48.674;9.242;2022-09-03T12:22:17;23.50;53.50
21502;DHT22;27639;48.674;9.242;2022-09-03T12:24:43;23.20;53.80
21502;DHT22;27639;48.674;9.242;2022-09-03T12:29:56;22.60;55.00
21502;DHT22;27639;48.674;9.242;2022-09-03T12:32:32;22.40;55.30
21502;DHT22;27639;48.674;9.242;2022-09-03T12:35:19;22.30;55.80
21502;DHT22;27639;48.674;9.242;2022-09-03T12:37:46;22.10;55.90
21502;DHT22;27639;48.674;9.242;2022-09-03T12:40:23;22.10;56.40
21502;DHT22;27639;48.674;9.242;2022-09-03T12:42:51;22.00;56.30
21502;DHT22;27639;48.674;9.242;2022-09-03T12:45:22;22.00;57.10
21502;DHT22;27639;48.674;9.242;2022-09-03T12:47:49;21.90;57.60
21502;DHT22;27639;48.674;9.242;2022-09-03T12:50:20;21.80;57.80
21502;DHT22;27639;48.674;9.242;2022-09-03T12:52:49;21.60;58.00
21502;DHT22;27639;48.674;9.242;2022-09-03T12:55:31;21.60;58.40
21502;DHT22;27639;48.674;9.242;2022-09-03T12:58:09;21.50;58.60
21502;DHT22;27639;48.674;9.242;2022-09-03T13:00:56;21.40;58.80
21502;DHT22;27639;48.674;9.242;2022-09-03T13:03:23;21.40;59.10
21502;DHT22;27639;48.674;9.242;2022-09-03T13:05:55;21.50;59.30
21502;DHT22;27639;48.674;9.242;2022-09-03T13:08:28;21.50;59.40
21502;DHT22;27639;48.674;9.242;2022-09-03T13:10:57;21.50;59.50
21502;DHT22;27639;48.674;9.242;2022-09-03T13:13:25;21.50;59.60
21502;DHT22;27639;48.674;9.242;2022-09-03T13:19:57;21.50;59.60
21502;DHT22;27639;48.674;9.242;2022-09-03T13:21:50;21.50;60.10
21502;DHT22;27639;48.674;9.242;2022-09-03T13:30:19;21.20;60.40
21502;DHT22;27639;48.674;9.242;2022-09-03T13:40:44;21.20;61.50
21502;DHT22;27639;48.674;9.242;2022-09-03T13:43:27;21.20;61.80
21502;DHT22;27639;48.674;9.242;2022-09-03T13:46:00;21.20;62.20
21502;DHT22;27639;48.674;9.242;2022-09-03T13:48:39;21.30;62.40
21502;DHT22;27639;48.674;9.242;2022-09-03T14:07:19;21.60;63.30
21502;DHT22;27639;48.674;9.242;2022-09-03T14:12:49;21.70;63.90
21502;DHT22;27639;48.674;9.242;2022-09-03T14:15:41;21.80;63.90
21502;DHT22;27639;48.674;9.242;2022-09-03T14:18:15;21.90;63.50
21502;DHT22;27639;48.674;9.242;2022-09-03T14:21:02;21.90;63.60
21502;DHT22;27639;48.674;9.242;2022-09-03T14:26:33;22.10;63.40
21502;DHT22;27639;48.674;9.242;2022-09-03T14:42:50;22.30;62.70
21502;DHT22;27639;48.674;9.242;2022-09-03T14:51:13;22.60;61.60
21502;DHT22;27639;48.674;9.242;2022-09-03T14:56:24;22.50;61.70
21502;DHT22;27639;48.674;9.242;2022-09-03T15:01:35;22.60;61.60
21502;DHT22;27639;48.674;9.242;2022-09-03T15:07:40;22.70;61.50
21502;DHT22;27639;48.674;9.242;2022-09-03T15:12:58;22.70;61.70
21502;DHT22;27639;48.674;9.242;2022-09-03T15:20:59;22.90;61.00
21502;DHT22;27639;48.674;9.242;2022-09-03T15:29:06;23.00;60.40
21502;DHT22;27639;48.674;9.242;2022-09-03T15:31:57;23.10;60.30
21502;DHT22;27639;48.674;9.242;2022-09-03T15:35:03;23.10;59.70
21502;DHT22;27639;48.674;9.242;2022-09-03T15:37:57;23.10;59.60
21502;DHT22;27639;48.674;9.242;2022-09-03T15:43:31;23.20;60.00
21502;DHT22;27639;48.674;9.242;2022-09-03T15:46:03;23.20;60.10
21502;DHT22;27639;48.674;9.242;2022-09-03T15:48:55;23.20;60.00
21502;DHT22;27639;48.674;9.242;2022-09-03T15:51:34;23.20;60.00
21502;DHT22;27639;48.674;9.242;2022-09-03T15:56:42;23.40;60.00
21502;DHT22;27639;48.674;9.242;2022-09-03T15:59:18;23.40;60.00
21502;DHT22;27639;48.674;9.242;2022-09-03T16:02:07;23.40;59.80
21502;DHT22;27639;48.674;9.242;2022-09-03T16:15:23;23.30;60.10
21502;DHT22;27639;48.674;9.242;2022-09-03T16:18:12;23.20;60.00
21502;DHT22;27639;48.674;9.242;2022-09-03T16:21:06;23.30;59.90
21502;DHT22;27639;48.674;9.242;2022-09-03T16:23:48;23.30;59.90
21502;DHT22;27639;48.674;9.242;2022-09-03T16:26:18;23.30;59.90
21502;DHT22;27639;48.674;9.242;2022-09-03T16:31:23;23.40;60.00
21502;DHT22;27639;48.674;9.242;2022-09-03T16:42:32;23.40;59.70
21502;DHT22;27639;48.674;9.242;2022-09-03T16:51:19;23.50;59.60
21502;DHT22;27639;48.674;9.242;2022-09-03T16:59:16;23.60;59.50
21502;DHT22;27639;48.674;9.242;2022-09-03T17:02:39;23.70;59.60
21502;DHT22;27639;48.674;9.242;2022-09-03T17:10:47;23.60;59.30
21502;DHT22;27639;48.674;9.242;2022-09-03T17:15:48;23.70;59.40
21502;DHT22;27639;48.674;9.242;2022-09-03T17:18:29;23.70;59.40
21502;DHT22;27639;48.674;9.242;2022-09-03T17:26:52;23.80;59.10
21502;DHT22;27639;48.674;9.242;2022-09-03T17:34:49;23.90;59.30
21502;DHT22;27639;48.674;9.242;2022-09-03T17:40:25;23.90;59.30
21502;DHT22;27639;48.674;9.242;2022-09-03T17:45:58;23.80;59.30
21502;DHT22;27639;48.674;9.242;2022-09-03T17:51:11;23.80;59.70
21502;DHT22;27639;48.674;9.242;2022-09-03T17:53:44;23.70;60.00
21502;DHT22;27639;48.674;9.242;2022-09-03T17:56:24;23.70;60.10
21502;DHT22;27639;48.674;9.242;2022-09-03T17:59:01;23.70;60.10
21502;DHT22;27639;48.674;9.242;2022-09-03T18:01:30;23.70;60.20
21502;DHT22;27639;48.674;9.242;2022-09-03T18:04:19;23.70;60.20
21502;DHT22;27639;48.674;9.242;2022-09-03T18:09:41;23.60;60.10
21502;DHT22;27639;48.674;9.242;2022-09-03T18:12:13;23.50;60.20
21502;DHT22;27639;48.674;9.242;2022-09-03T18:14:55;23.50;60.40
21502;DHT22;27639;48.674;9.242;2022-09-03T18:17:32;23.50;60.40
21502;DHT22;27639;48.674;9.242;2022-09-03T18:20:08;23.50;60.60
21502;DHT22;27639;48.674;9.242;2022-09-03T18:23:04;23.40;60.50
21502;DHT22;27639;48.674;9.242;2022-09-03T18:26:03;23.40;60.80
21502;DHT22;27639;48.674;9.242;2022-09-03T18:29:02;23.30;60.80
21502;DHT22;27639;48.674;9.242;2022-09-03T18:31:48;23.20;61.10
21502;DHT22;27639;48.674;9.242;2022-09-03T18:34:34;23.10;61.20
21502;DHT22;27639;48.674;9.242;2022-09-03T18:37:24;23.00;61.20
21502;DHT22;27639;48.674;9.242;2022-09-03T18:40:13;22.90;61.40
21502;DHT22;27639;48.674;9.242;2022-09-03T18:43:13;22.90;62.50
21502;DHT22;27639;48.674;9.242;2022-09-03T18:46:09;22.80;61.80
21502;DHT22;27639;48.674;9.242;2022-09-03T18:52:22;22.80;61.70
21502;DHT22;27639;48.674;9.242;2022-09-03T18:55:33;22.60;61.90
21502;DHT22;27639;48.674;9.242;2022-09-03T18:59:16;22.60;62.20
21502;DHT22;27639;48.674;9.242;2022-09-03T19:01:40;22.50;62.30
21502;DHT22;27639;48.674;9.242;2022-09-03T19:10:38;22.20;62.60
21502;DHT22;27639;48.674;9.242;2022-09-03T19:26:38;22.00;62.10
21502;DHT22;27639;48.674;9.242;2022-09-03T19:29:47;23.00;60.90
21502;DHT22;27639;48.674;9.242;2022-09-03T19:33:06;22.60;61.60
21502;DHT22;27639;48.674;9.242;2022-09-03T19:35:56;22.50;62.20
21502;DHT22;27639;48.674;9.242;2022-09-03T19:41:46;22.20;62.60
21502;DHT22;27639;48.674;9.242;2022-09-03T19:44:51;22.10;62.90
21502;DHT22;27639;48.674;9.242;2022-09-03T19:50:39;21.90;64.20
21502;DHT22;27639;48.674;9.242;2022-09-03T19:53:25;21.90;63.50
21502;DHT22;27639;48.674;9.242;2022-09-03T19:56:18;21.80;63.60
21502;DHT22;27639;48.674;9.242;2022-09-03T19:59:12;21.80;63.60
21502;DHT22;27639;48.674;9.242;2022-09-03T20:01:57;21.70;64.50
21502;DHT22;27639;48.674;9.242;2022-09-03T20:05:13;21.60;63.80
21502;DHT22;27639;48.674;9.242;2022-09-03T20:07:59;21.60;63.60
21502;DHT22;27639;48.674;9.242;2022-09-03T20:10:44;21.50;64.10
21502;DHT22;27639;48.674;9.242;2022-09-03T20:13:17;21.40;64.00
21502;DHT22;27639;48.674;9.242;2022-09-03T20:16:08;21.50;64.20
21502;DHT22;27639;48.674;9.242;2022-09-03T20:21:20;21.50;64.20
21502;DHT22;27639;48.674;9.242;2022-09-03T20:27:24;21.50;63.80
21502;DHT22;27639;48.674;9.242;2022-09-03T20:30:09;21.50;63.90
21502;DHT22;27639;48.674;9.242;2022-09-03T20:35:45;21.30;64.00
21502;DHT22;27639;48.674;9.242;2022-09-03T20:52:52;21.10;64.70
21502;DHT22;27639;48.674;9.242;2022-09-03T20:55:42;21.00;64.60
21502;DHT22;27639;48.674;9.242;2022-09-03T21:01:03;20.90;65.10
21502;DHT22;27639;48.674;9.242;2022-09-03T21:06:10;20.90;65.10
21502;DHT22;27639;48.674;9.242;2022-09-03T21:11:20;20.90;65.10
21502;DHT22;27639;48.674;9.242;2022-09-03T21:14:24;20.90;65.10
21502;DHT22;27639;48.674;9.242;2022-09-03T21:25:14;21.00;65.30
21502;DHT22;27639;48.674;9.242;2022-09-03T21:27:47;21.00;65.30
21502;DHT22;27639;48.674;9.242;2022-09-03T21:30:17;21.00;65.30